Time;durP1;ratioP1;P1;durP2;ratioP2;P2;SDS_P1;SDS_P2;PMS_P1;PMS_P2;Temp;Humidity;BMP_temperature;BMP_pressure;BME280_temperature;BME280_humidity;BME280_pressure;Samples;Min_cycle;Max_cycle;Signal;HPM_P1;HPM_P2
2022/09/06 00:00:25;;;;;;;3.77;1.50;;;19.00;1.00;;;;;;5082136;28;20645;-78
2022/09/06 00:02:51;;;;;;;2.13;1.73;;;19.10;1.00;;;;;;5080919;28;20289;-79
2022/09/06 00:05:16;;;;;;;2.40;1.83;;;19.00;1.00;;;;;;5078965;28;20203;-78
2022/09/06 00:07:42;;;;;;;5.50;1.93;;;19.10;1.00;;;;;;5079064;28;20195;-78
2022/09/06 00:10:08;;;;;;;3.37;1.77;;;19.10;1.00;;;;;;5078914;28;20688;-79
2022/09/06 00:12:34;;;;;;;2.50;1.70;;;19.10;1.00;;;;;;5079114;28;20183;-78
2022/09/06 00:15:00;;;;;;;5.50;2.30;;;19.10;1.00;;;;;;5078770;28;20175;-78
2022/09/06 00:17:25;;;;;;;3.20;1.90;;;19.10;99.90;;;;;;5078367;28;20225;-78
2022/09/06 00:19:51;;;;;;;3.50;2.17;;;19.00;99.90;;;;;;5078339;28;20179;-79
2022/09/06 00:22:16;;;;;;;3.73;1.73;;;19.20;99.90;;;;;;5077382;28;20229;-78
2022/09/06 00:24:42;;;;;;;3.00;2.00;;;19.20;99.90;;;;;;5078695;28;20182;-78
2022/09/06 00:27:08;;;;;;;6.27;2.20;;;19.30;99.90;;;;;;5076246;28;20207;-78
2022/09/06 00:29:34;;;;;;;5.50;1.90;;;19.40;99.90;;;;;;5076752;28;20167;-79
2022/09/06 00:31:59;;;;;;;3.43;2.23;;;19.50;99.90;;;;;;5078596;28;20171;-78
2022/09/06 00:34:26;;;;;;;3.03;2.17;;;19.50;35.80;;;;;;5079161;28;20629;-77
2022/09/06 00:36:52;;;;;;;8.77;4.50;;;19.60;98.10;;;;;;5078264;28;20617;-79
2022/09/06 00:39:17;;;;;;;5.90;2.53;;;19.70;1.00;;;;;;5076329;28;20321;-78
2022/09/06 00:41:43;;;;;;;4.50;2.43;;;19.80;1.00;;;;;;5075985;28;20183;-79
2022/09/06 00:44:08;;;;;;;5.27;2.03;;;19.90;1.00;;;;;;5078685;28;20179;-79
2022/09/06 00:46:36;;;;;;;4.10;2.30;;;19.90;99.90;;;;;;5079161;28;20581;-79
2022/09/06 00:49:06;;;;;;;5.93;2.40;;;20.10;99.90;;;;;;5075725;28;20185;-78
2022/09/06 00:51:34;;;;;;;4.40;2.30;;;20.10;99.90;;;;;;5077436;28;20680;-79
2022/09/06 00:54:03;;;;;;;4.63;2.40;;;20.30;1.00;;;;;;5075685;28;20266;-78
2022/09/06 00:56:30;;;;;;;7.80;2.73;;;20.50;1.00;;;;;;5075892;28;20181;-79
2022/09/06 00:58:56;;;;;;;8.33;2.43;;;20.60;1.00;;;;;;5076712;28;20206;-79
2022/09/06 01:01:21;;;;;;;9.10;2.50;;;20.60;1.00;;;;;;5077001;28;20671;-79
2022/09/06 01:03:47;;;;;;;6.00;2.10;;;20.60;1.00;;;;;;5077396;28;20171;-79
2022/09/06 01:06:19;;;;;;;10.47;2.50;;;20.60;1.00;;;;;;5076117;28;20659;-78
2022/09/06 01:08:53;;;;;;;6.30;2.00;;;20.60;1.00;;;;;;5076212;28;20270;-78
2022/09/06 01:11:42;;;;;;;4.87;2.10;;;20.60;1.00;;;;;;5076008;28;20690;-79
2022/09/06 01:14:13;;;;;;;3.83;1.70;;;20.50;1.00;;;;;;5075636;28;20274;-78
2022/09/06 01:16:43;;;;;;;2.47;1.90;;;20.50;1.00;;;;;;5075779;28;20176;-78
2022/09/06 01:19:26;;;;;;;5.83;2.10;;;20.60;99.90;;;;;;5077426;28;20178;-79
2022/09/06 01:22:11;;;;;;;2.87;1.83;;;20.70;99.90;;;;;;5077184;28;20163;-79
2022/09/06 01:24:48;;;;;;;3.57;1.80;;;20.70;99.90;;;;;;5076103;28;20178;-79
2022/09/06 01:27:35;;;;;;;4.07;1.97;;;20.60;99.90;;;;;;5077019;28;20649;-79
2022/09/06 01:30:07;;;;;;;6.87;2.13;;;20.60;99.90;;;;;;5074808;28;20221;-79
2022/09/06 01:32:48;;;;;;;2.13;1.63;;;20.60;99.90;;;;;;5077928;28;20164;-79
2022/09/06 01:35:26;;;;;;;6.27;1.80;;;20.70;1.00;;;;;;5076403;28;20179;-79
2022/09/06 01:37:52;;;;;;;5.03;2.10;;;20.70;1.00;;;;;;5077155;28;20198;-79
2022/09/06 01:40:18;;;;;;;5.23;1.90;;;20.70;1.00;;;;;;5075842;28;20640;-78
2022/09/06 01:42:46;;;;;;;5.43;2.13;;;20.80;1.00;;;;;;5073749;28;20236;-77
2022/09/06 01:45:15;;;;;;;4.20;2.20;;;20.70;1.00;;;;;;5073475;28;20179;-78
2022/09/06 01:48:03;;;;;;;4.40;2.40;;;20.70;1.00;;;;;;5073154;28;20198;-78
2022/09/06 01:51:17;;;;;;;4.40;2.33;;;20.60;1.00;;;;;;5073852;28;20201;-78
2022/09/06 01:53:59;;;;;;;2.87;1.90;;;20.40;1.00;;;;;;5069515;28;20187;-78
2022/09/06 01:57:07;;;;;;;4.57;2.10;;;20.20;99.90;;;;;;5074584;28;20529;-78
2022/09/06 01:59:51;;;;;;;4.17;2.07;;;20.10;99.90;;;;;;5051594;28;20613;-78
2022/09/06 02:02:39;;;;;;;4.50;2.50;;;20.00;1.00;;;;;;5073946;28;20229;-78
2022/09/06 02:05:16;;;;;;;4.53;2.03;;;19.90;99.90;;;;;;5074887;28;20526;-78
2022/09/06 02:07:44;;;;;;;3.23;1.80;;;19.80;1.00;;;;;;5074735;28;20248;-78
2022/09/06 02:10:19;;;;;;;2.97;2.10;;;19.70;1.00;;;;;;5073929;28;20202;-78
2022/09/06 02:12:48;;;;;;;5.73;2.37;;;19.80;99.90;;;;;;5074967;28;20159;-78
2022/09/06 02:15:20;;;;;;;2.93;2.20;;;19.70;1.00;;;;;;5074573;28;20167;-78
2022/09/06 02:17:54;;;;;;;4.83;2.67;;;19.60;1.00;;;;;;5074786;28;20195;-78
2022/09/06 02:20:24;;;;;;;4.83;2.33;;;19.60;1.00;;;;;;5072483;28;20186;-78
2022/09/06 02:22:55;;;;;;;5.80;2.43;;;19.60;1.00;;;;;;5073313;28;20185;-78
2022/09/06 02:25:26;;;;;;;2.23;2.03;;;19.50;1.00;;;;;;5072635;28;20171;-78
2022/09/06 02:27:53;;;;;;;6.60;2.50;;;19.50;99.90;;;;;;5071975;28;20688;-78
2022/09/06 02:30:18;;;;;;;5.97;2.03;;;19.50;99.90;;;;;;5067083;28;20196;-78
2022/09/06 02:32:51;;;;;;;4.50;2.00;;;19.50;99.90;;;;;;5053847;28;20176;-78
2022/09/06 02:35:17;;;;;;;2.57;2.00;;;19.50;99.90;;;;;;5054044;28;20156;-78
2022/09/06 02:37:43;;;;;;;7.27;2.10;;;19.50;1.00;;;;;;5054268;28;20187;-78
2022/09/06 02:40:09;;;;;;;4.30;2.20;;;19.50;1.00;;;;;;5057471;28;20179;-77
2022/09/06 02:42:35;;;;;;;3.10;2.03;;;19.40;1.00;;;;;;5074084;28;20183;-78
2022/09/06 02:45:01;;;;;;;3.40;2.30;;;19.30;1.00;;;;;;5074065;28;20179;-78
2022/09/06 02:47:26;;;;;;;4.07;2.27;;;19.30;1.00;;;;;;5072642;28;20293;-78
2022/09/06 02:49:52;;;;;;;5.00;2.50;;;19.30;1.00;;;;;;5073297;28;20187;-78
2022/09/06 02:52:17;;;;;;;3.37;2.20;;;19.20;1.00;;;;;;5073148;28;20206;-78
2022/09/06 02:54:43;;;;;;;3.67;2.20;;;19.20;1.00;;;;;;5074022;28;20655;-77
2022/09/06 02:57:09;;;;;;;2.60;2.20;;;19.20;99.90;;;;;;5073837;28;20597;-78
2022/09/06 02:59:34;;;;;;;2.57;2.30;;;19.20;99.90;;;;;;5073833;28;20175;-78
2022/09/06 03:02:00;;;;;;;3.30;2.13;;;19.10;99.90;;;;;;5072682;28;20182;-78
2022/09/06 03:04:25;;;;;;;7.93;2.43;;;19.10;99.90;;;;;;5074977;28;20179;-78
2022/09/06 03:06:51;;;;;;;5.07;2.00;;;19.00;99.90;;;;;;5074602;28;20179;-78
2022/09/06 03:09:16;;;;;;;2.90;2.20;;;19.00;99.90;;;;;;5074729;28;20198;-78
2022/09/06 03:11:42;;;;;;;4.07;2.60;;;19.00;99.90;;;;;;5073680;28;20199;-78
2022/09/06 03:14:08;;;;;;;4.67;2.50;;;18.90;99.90;;;;;;5074619;28;20175;-76
2022/09/06 03:16:33;;;;;;;3.63;2.43;;;18.90;99.90;;;;;;5073354;28;20182;-78
2022/09/06 03:18:59;;;;;;;3.80;2.67;;;18.90;99.90;;;;;;5073788;28;20257;-78
2022/09/06 03:21:25;;;;;;;5.80;3.37;;;18.80;99.90;;;;;;5071966;28;20179;-78
2022/09/06 03:23:51;;;;;;;6.07;3.30;;;18.80;99.90;;;;;;5074466;28;20177;-78
2022/09/06 03:26:16;;;;;;;7.00;3.13;;;18.80;99.90;;;;;;5074375;28;20183;-78
2022/09/06 03:28:42;;;;;;;4.93;2.90;;;18.70;99.90;;;;;;5074461;28;20659;-78
2022/09/06 03:31:07;;;;;;;4.40;2.87;;;18.80;99.90;;;;;;5079475;28;20276;-78
2022/09/06 03:33:33;;;;;;;3.93;2.70;;;18.70;99.90;;;;;;5089392;28;20167;-77
2022/09/06 03:36:01;;;;;;;7.60;2.93;;;18.70;99.90;;;;;;5083290;28;20621;-78
2022/09/06 03:38:28;;;;;;;5.50;3.20;;;18.70;99.90;;;;;;5071769;28;20692;-78
2022/09/06 03:40:54;;;;;;;5.17;3.20;;;18.70;99.90;;;;;;5075534;28;20648;-78
2022/09/06 03:43:20;;;;;;;6.23;3.20;;;18.70;99.90;;;;;;5075902;28;20179;-78
2022/09/06 03:45:48;;;;;;;3.20;2.90;;;18.70;99.90;;;;;;5075506;28;20232;-78
2022/09/06 03:48:14;;;;;;;4.30;2.73;;;18.70;99.90;;;;;;5076981;28;20203;-78
2022/09/06 03:50:45;;;;;;;3.17;2.80;;;18.70;99.90;;;;;;5074824;28;20198;-77
2022/09/06 03:53:10;;;;;;;4.53;2.80;;;18.70;99.90;;;;;;5077193;28;20175;-78
2022/09/06 03:55:36;;;;;;;5.07;2.60;;;18.70;99.90;;;;;;5075915;28;20183;-78
2022/09/06 03:58:01;;;;;;;5.10;3.30;;;18.60;99.90;;;;;;5077460;28;20688;-78
2022/09/06 04:00:27;;;;;;;7.10;3.00;;;18.60;99.90;;;;;;5075850;28;20178;-78
2022/09/06 04:02:53;;;;;;;6.03;3.13;;;18.60;99.90;;;;;;5076749;28;20651;-78
2022/09/06 04:05:18;;;;;;;3.40;2.83;;;18.60;99.90;;;;;;5077330;28;20179;-78
2022/09/06 04:07:44;;;;;;;4.50;2.73;;;18.60;99.90;;;;;;5077231;28;20289;-78
2022/09/06 04:10:09;;;;;;;5.37;3.10;;;18.50;99.90;;;;;;5076154;28;20341;-78
2022/09/06 04:12:35;;;;;;;3.80;3.40;;;18.50;99.90;;;;;;5077774;28;20233;-78
2022/09/06 04:15:00;;;;;;;3.20;2.83;;;18.50;99.90;;;;;;5076457;28;20175;-78
2022/09/06 04:17:26;;;;;;;3.83;2.80;;;18.50;99.90;;;;;;5076948;28;20270;-79
2022/09/06 04:19:51;;;;;;;4.30;3.10;;;18.60;99.90;;;;;;5075504;28;20229;-78
2022/09/06 04:22:17;;;;;;;5.13;2.90;;;18.50;99.90;;;;;;5078182;28;20194;-78
2022/09/06 04:24:42;;;;;;;6.47;3.40;;;18.60;99.90;;;;;;5078619;28;20534;-79
2022/09/06 04:27:08;;;;;;;6.00;3.23;;;18.60;99.90;;;;;;5078586;28;20693;-79
2022/09/06 04:29:33;;;;;;;5.60;3.33;;;18.60;99.90;;;;;;5078585;28;20205;-79
2022/09/06 04:31:59;;;;;;;5.60;3.30;;;18.50;99.90;;;;;;5079406;28;20285;-79
2022/09/06 04:34:24;;;;;;;4.83;3.30;;;18.50;99.90;;;;;;5076196;28;20269;-78
2022/09/06 04:36:50;;;;;;;5.33;3.00;;;18.50;99.90;;;;;;5078170;28;20174;-79
2022/09/06 04:39:15;;;;;;;4.27;3.17;;;18.70;99.90;;;;;;5078037;28;20175;-79
2022/09/06 04:41:41;;;;;;;6.23;3.23;;;18.50;99.90;;;;;;5078958;28;20175;-80
2022/09/06 04:44:07;;;;;;;5.27;3.37;;;18.50;99.90;;;;;;5078631;28;20217;-79
2022/09/06 04:46:32;;;;;;;5.27;3.40;;;18.50;99.90;;;;;;5079471;28;20190;-79
2022/09/06 04:49:00;;;;;;;5.53;3.17;;;18.50;99.90;;;;;;5083166;28;20195;-78
2022/09/06 04:51:25;;;;;;;6.23;3.63;;;18.50;99.90;;;;;;5087892;28;20202;-78
2022/09/06 04:53:51;;;;;;;4.23;3.17;;;18.50;99.90;;;;;;5087326;28;20171;-78
2022/09/06 04:56:19;;;;;;;5.43;3.03;;;18.50;99.90;;;;;;5079663;28;20177;-79
2022/09/06 04:58:47;;;;;;;6.40;3.47;;;18.50;99.90;;;;;;5076869;28;20202;-78
2022/09/06 05:01:12;;;;;;;8.63;3.50;;;18.40;99.90;;;;;;5076488;28;20194;-79
2022/09/06 05:03:38;;;;;;;7.63;3.50;;;18.40;99.90;;;;;;5075017;28;20653;-78
2022/09/06 05:06:21;;;;;;;3.77;2.80;;;18.40;99.90;;;;;;5074930;28;20175;-78
2022/09/06 05:08:48;;;;;;;5.40;2.70;;;18.40;99.90;;;;;;5076326;28;20195;-78
2022/09/06 05:11:14;;;;;;;4.13;2.40;;;18.30;99.90;;;;;;5075935;28;20560;-78
2022/09/06 05:13:41;;;;;;;3.87;3.10;;;18.40;99.90;;;;;;5075190;28;20171;-78
2022/09/06 05:16:07;;;;;;;5.23;2.67;;;18.40;99.90;;;;;;5076203;28;20171;-79
2022/09/06 05:18:33;;;;;;;5.67;3.23;;;18.30;99.90;;;;;;5075580;28;20240;-79
2022/09/06 05:20:59;;;;;;;5.93;2.93;;;18.20;99.90;;;;;;5076439;28;20171;-78
2022/09/06 05:23:25;;;;;;;5.90;3.33;;;18.20;99.90;;;;;;5076137;28;20173;-79
2022/09/06 05:25:51;;;;;;;4.40;3.43;;;18.20;99.90;;;;;;5076220;28;20178;-78
2022/09/06 05:28:18;;;;;;;4.63;3.30;;;18.20;99.90;;;;;;5075851;28;20259;-79
2022/09/06 05:30:43;;;;;;;5.40;3.00;;;18.10;99.90;;;;;;5076443;28;20198;-78
2022/09/06 05:33:10;;;;;;;4.87;3.20;;;18.10;99.90;;;;;;5077233;28;20163;-78
2022/09/06 05:35:36;;;;;;;4.80;3.30;;;18.00;99.90;;;;;;5076711;28;20174;-79
2022/09/06 05:38:02;;;;;;;5.27;2.87;;;18.00;99.90;;;;;;5076116;28;20187;-79
2022/09/06 05:40:27;;;;;;;4.20;3.20;;;18.00;99.90;;;;;;5074602;28;20179;-78
2022/09/06 05:42:53;;;;;;;3.70;3.20;;;17.80;99.90;;;;;;5076133;28;20186;-79
2022/09/06 05:45:18;;;;;;;6.87;3.33;;;17.90;99.90;;;;;;5074957;28;20179;-78
2022/09/06 05:47:44;;;;;;;4.80;3.00;;;17.90;99.90;;;;;;5075099;28;20605;-79
2022/09/06 05:50:10;;;;;;;5.83;2.70;;;17.90;99.90;;;;;;5075352;28;20566;-79
2022/09/06 05:52:37;;;;;;;7.00;3.13;;;17.90;99.90;;;;;;5076369;28;20203;-79
2022/09/06 05:55:03;;;;;;;5.07;3.40;;;17.90;99.90;;;;;;5076999;28;20537;-79
2022/09/06 05:57:28;;;;;;;7.27;3.50;;;17.80;99.90;;;;;;5076565;28;20182;-79
2022/09/06 05:59:54;;;;;;;7.47;3.30;;;17.80;99.90;;;;;;5075431;28;20209;-80
2022/09/06 06:02:21;;;;;;;3.93;3.17;;;17.80;99.90;;;;;;5076380;28;20171;-79
2022/09/06 06:04:46;;;;;;;4.17;3.20;;;17.70;99.90;;;;;;5076915;28;20171;-79
2022/09/06 06:07:12;;;;;;;4.90;2.90;;;17.80;99.90;;;;;;5078775;28;20207;-79
2022/09/06 06:09:38;;;;;;;8.43;3.57;;;17.70;99.90;;;;;;5087902;28;20175;-78
2022/09/06 06:12:03;;;;;;;4.07;3.10;;;17.70;99.90;;;;;;5084958;28;20202;-78
2022/09/06 06:14:29;;;;;;;5.33;3.43;;;17.70;99.90;;;;;;5074672;28;20629;-77
2022/09/06 06:16:54;;;;;;;6.33;3.90;;;17.70;99.90;;;;;;5073825;28;20234;-78
2022/09/06 06:19:20;;;;;;;7.63;3.87;;;17.70;99.90;;;;;;5074960;28;20206;-79
2022/09/06 06:21:45;;;;;;;6.57;3.87;;;17.70;99.90;;;;;;5075150;28;20221;-79
2022/09/06 06:24:11;;;;;;;7.70;3.90;;;17.80;99.90;;;;;;5073616;28;20171;-79
2022/09/06 06:26:37;;;;;;;6.33;3.90;;;17.80;99.90;;;;;;5072766;28;20595;-78
2022/09/06 06:29:06;;;;;;;7.10;4.47;;;17.80;99.90;;;;;;5074423;28;20596;-79
2022/09/06 06:31:32;;;;;;;4.13;3.73;;;17.80;99.90;;;;;;5073006;28;20205;-78
2022/09/06 06:34:01;;;;;;;6.77;3.90;;;17.90;99.90;;;;;;5074873;28;20202;-79
2022/09/06 06:36:29;;;;;;;7.10;4.63;;;17.90;99.90;;;;;;5075439;28;20191;-79
2022/09/06 06:38:55;;;;;;;6.60;4.80;;;17.90;99.90;;;;;;5073575;28;20735;-78
2022/09/06 06:41:22;;;;;;;5.43;4.43;;;18.00;99.90;;;;;;5073503;28;20202;-79
2022/09/06 06:43:51;;;;;;;8.87;4.50;;;18.00;99.90;;;;;;5074859;28;20167;-79
2022/09/06 06:46:17;;;;;;;5.53;4.83;;;18.10;99.90;;;;;;5076352;28;20232;-79
2022/09/06 06:48:44;;;;;;;6.73;4.87;;;18.10;99.90;;;;;;5076146;28;20240;-78
2022/09/06 06:51:12;;;;;;;7.67;4.43;;;18.10;99.90;;;;;;5074741;28;20269;-78
2022/09/06 06:53:38;;;;;;;9.60;4.70;;;18.20;99.90;;;;;;5074868;28;20640;-79
2022/09/06 06:56:17;;;;;;;5.07;4.13;;;18.20;99.90;;;;;;5074909;28;20181;-79
2022/09/06 06:58:44;;;;;;;6.50;4.37;;;18.40;99.90;;;;;;5073239;28;20190;-78
2022/09/06 07:01:11;;;;;;;6.50;4.30;;;18.60;99.90;;;;;;5073207;28;20182;-79
2022/09/06 07:03:36;;;;;;;6.00;4.50;;;18.40;99.90;;;;;;5073610;28;20202;-79
2022/09/06 07:06:03;;;;;;;7.67;4.20;;;18.50;99.90;;;;;;5073123;28;20637;-80
2022/09/06 07:08:28;;;;;;;9.27;4.30;;;18.50;99.90;;;;;;5074684;28;20186;-78
2022/09/06 07:10:54;;;;;;;4.77;3.90;;;18.60;99.90;;;;;;5075623;28;20195;-79
2022/09/06 07:13:19;;;;;;;5.80;3.77;;;18.70;99.90;;;;;;5074424;28;20254;-79
2022/09/06 07:15:45;;;;;;;4.77;2.83;;;18.70;99.90;;;;;;5078043;28;20637;-79
2022/09/06 07:18:10;;;;;;;4.93;3.70;;;18.80;1.00;;;;;;5078603;28;20222;-79
2022/09/06 07:20:36;;;;;;;6.77;3.37;;;18.90;1.00;;;;;;5079975;28;20281;-79
2022/09/06 07:23:04;;;;;;;7.23;3.17;;;18.90;1.00;;;;;;5080132;28;20179;-79
2022/09/06 07:25:30;;;;;;;4.60;2.73;;;19.00;1.00;;;;;;5080010;28;20223;-79
2022/09/06 07:28:07;;;;;;;3.63;3.00;;;19.10;99.90;;;;;;5079768;28;20340;-79
2022/09/06 07:30:35;;;;;;;3.20;2.70;;;19.10;99.40;;;;;;5080229;28;20190;-79
2022/09/06 07:33:01;;;;;;;4.60;2.97;;;19.20;1.00;;;;;;5080114;28;20167;-80
2022/09/06 07:35:27;;;;;;;2.60;2.23;;;19.30;99.90;;;;;;5079875;28;20182;-79
2022/09/06 07:37:54;;;;;;;3.23;2.83;;;19.40;1.00;;;;;;5079957;28;20210;-79
2022/09/06 07:40:20;;;;;;;7.77;2.77;;;19.40;1.00;;;;;;5080154;28;20207;-79
2022/09/06 07:42:45;;;;;;;4.23;2.53;;;19.50;99.90;;;;;;5080367;28;20655;-79
2022/09/06 07:45:11;;;;;;;4.50;2.70;;;19.60;99.90;;;;;;5077472;28;20179;-79
2022/09/06 07:47:37;;;;;;;3.87;2.60;;;19.70;99.90;;;;;;5079011;28;20599;-79
2022/09/06 07:50:03;;;;;;;3.30;2.13;;;19.80;43.00;;;;;;5078603;28;20163;-79
2022/09/06 07:52:28;;;;;;;3.53;2.50;;;19.80;1.00;;;;;;5078973;28;20159;-79
2022/09/06 07:54:55;;;;;;;4.40;2.10;;;19.80;1.00;;;;;;5078510;28;20300;-79
2022/09/06 07:57:24;;;;;;;3.27;2.30;;;19.90;1.00;;;;;;5078592;28;20186;-79
2022/09/06 07:59:50;;;;;;;4.93;2.13;;;20.00;1.00;;;;;;5078282;28;20224;-79
2022/09/06 08:02:16;;;;;;;4.97;1.93;;;20.00;1.00;;;;;;5078231;28;20177;-79
2022/09/06 08:04:42;;;;;;;3.27;2.20;;;20.10;1.00;;;;;;5077451;28;20224;-79
2022/09/06 08:07:08;;;;;;;2.43;1.97;;;20.20;99.90;;;;;;5079201;28;20195;-79
2022/09/06 08:09:34;;;;;;;2.67;2.33;;;20.30;99.90;;;;;;5079239;28;20171;-79
2022/09/06 08:12:05;;;;;;;3.40;2.00;;;20.40;1.00;;;;;;5078820;28;20195;-79
2022/09/06 08:14:31;;;;;;;2.43;1.70;;;20.50;99.90;;;;;;5079534;28;20147;-79
2022/09/06 08:16:56;;;;;;;3.63;1.90;;;20.60;99.90;;;;;;5079012;28;20244;-79
2022/09/06 08:19:22;;;;;;;4.07;1.90;;;20.70;1.00;;;;;;5078709;28;20286;-79
2022/09/06 08:21:48;;;;;;;2.03;1.53;;;20.80;99.90;;;;;;5078495;28;20186;-79
2022/09/06 08:24:14;;;;;;;2.60;1.33;;;20.90;99.90;;;;;;5077235;28;20701;-79
2022/09/06 08:26:41;;;;;;;1.90;1.60;;;21.00;99.90;;;;;;5077818;28;20218;-79
2022/09/06 08:29:08;;;;;;;2.17;1.57;;;21.10;1.00;;;;;;5078507;28;20182;-80
2022/09/06 08:31:36;;;;;;;3.17;1.63;;;21.20;1.00;;;;;;5077419;28;20199;-79
2022/09/06 08:34:02;;;;;;;2.57;1.70;;;21.30;1.00;;;;;;5078650;28;20163;-79
2022/09/06 08:36:29;;;;;;;2.60;1.60;;;21.40;99.90;;;;;;5078418;28;20710;-79
2022/09/06 08:38:59;;;;;;;3.87;2.20;;;21.50;1.00;;;;;;5078896;28;20183;-79
2022/09/06 08:41:45;;;;;;;1.93;1.70;;;21.60;1.00;;;;;;5078888;28;20151;-79
2022/09/06 08:44:25;;;;;;;2.50;1.70;;;21.60;99.90;;;;;;5078399;28;20166;-81
2022/09/06 08:46:59;;;;;;;1.67;1.57;;;21.80;99.90;;;;;;5076748;28;20450;-81
2022/09/06 08:49:29;;;;;;;3.90;1.70;;;21.90;99.90;;;;;;5077153;28;20185;-80
2022/09/06 08:52:32;;;;;;;6.90;1.70;;;21.90;99.90;;;;;;5075666;28;20198;-80
2022/09/06 08:55:23;;;;;;;2.90;1.50;;;22.10;99.90;;;;;;5077633;28;20166;-80
2022/09/06 08:58:00;;;;;;;1.97;1.60;;;22.20;33.50;;;;;;5077491;28;20256;-79
2022/09/06 09:00:26;;;;;;;2.40;1.53;;;22.30;1.00;;;;;;5075669;28;20170;-80
2022/09/06 09:03:02;;;;;;;2.60;1.53;;;22.30;1.00;;;;;;5077488;28;20687;-78
2022/09/06 09:05:28;;;;;;;3.10;1.80;;;22.40;99.90;;;;;;5077183;28;20233;-79
2022/09/06 09:08:14;;;;;;;3.80;1.40;;;22.50;99.90;;;;;;5076952;28;20198;-79
2022/09/06 09:10:57;;;;;;;7.00;1.70;;;22.60;99.90;;;;;;5076299;28;20211;-80
2022/09/06 09:13:26;;;;;;;3.40;1.30;;;22.60;99.90;;;;;;5077437;28;20154;-79
2022/09/06 09:15:52;;;;;;;3.67;1.47;;;22.70;1.00;;;;;;5076704;28;20579;-80
2022/09/06 09:18:25;;;;;;;3.10;1.43;;;22.80;1.00;;;;;;5075767;28;20280;-81
2022/09/06 09:20:51;;;;;;;2.43;1.53;;;22.90;1.00;;;;;;5076918;28;20534;-81
2022/09/06 09:23:17;;;;;;;1.80;1.20;;;23.10;99.90;;;;;;5075165;28;20179;-81
2022/09/06 09:25:45;;;;;;;2.63;1.47;;;23.30;99.40;;;;;;5075416;28;20174;-80
2022/09/06 09:28:23;;;;;;;2.37;1.30;;;23.60;1.00;;;;;;5076900;28;20234;-80
2022/09/06 09:30:51;;;;;;;2.83;1.23;;;23.60;1.00;;;;;;5077528;28;20244;-80
2022/09/06 09:33:40;;;;;;;2.03;1.27;;;23.50;1.00;;;;;;5075922;28;20206;-81
2022/09/06 09:36:12;;;;;;;1.83;1.07;;;23.60;1.00;;;;;;5077306;28;20187;-81
2022/09/06 09:38:40;;;;;;;2.00;1.17;;;23.70;1.00;;;;;;5075793;28;20564;-81
2022/09/06 09:41:07;;;;;;;3.93;1.10;;;23.60;1.00;;;;;;5077159;28;20171;-81
2022/09/06 09:43:37;;;;;;;3.33;1.10;;;23.70;1.00;;;;;;5077434;28;20169;-82
2022/09/06 09:46:37;;;;;;;2.83;1.00;;;23.80;1.00;;;;;;5075590;28;20166;-81
2022/09/06 09:49:21;;;;;;;1.13;0.87;;;23.80;99.90;;;;;;5064898;28;20190;-80
2022/09/06 09:52:11;;;;;;;1.40;1.00;;;23.90;99.90;;;;;;5076011;28;20278;-81
2022/09/06 09:54:41;;;;;;;2.03;1.00;;;24.10;99.90;;;;;;5076918;28;20159;-81
2022/09/06 09:57:09;;;;;;;1.97;1.10;;;24.30;20.70;;;;;;5075045;28;20615;-81
2022/09/06 09:59:56;;;;;;;1.97;1.03;;;24.30;1.00;;;;;;5076954;28;20171;-82
2022/09/06 10:02:35;;;;;;;1.77;1.10;;;24.40;1.00;;;;;;5077327;28;20249;-83
2022/09/06 10:05:12;;;;;;;2.20;0.90;;;24.50;1.00;;;;;;5077841;28;20621;-81
2022/09/06 10:07:57;;;;;;;2.63;1.13;;;24.70;1.00;;;;;;5077185;28;20197;-81
2022/09/06 10:10:37;;;;;;;3.63;1.37;;;24.80;1.00;;;;;;5078643;28;20182;-81
2022/09/06 10:13:20;;;;;;;1.90;1.00;;;25.00;1.00;;;;;;5078823;28;20159;-82
2022/09/06 10:15:47;;;;;;;1.17;0.73;;;25.00;1.00;;;;;;5076776;28;20167;-81
2022/09/06 10:18:19;;;;;;;1.77;1.00;;;25.00;1.00;;;;;;5074852;28;20197;-81
2022/09/06 10:20:54;;;;;;;1.80;0.87;;;25.10;1.00;;;;;;5077124;28;20160;-82
2022/09/06 10:23:39;;;;;;;1.43;0.90;;;25.10;1.00;;;;;;5075837;28;20170;-81
2022/09/06 10:26:17;;;;;;;2.17;1.37;;;25.10;1.00;;;;;;5076271;28;20224;-81
2022/09/06 10:28:45;;;;;;;2.85;1.00;;;25.20;1.00;;;;;;5077075;28;20786;-81
2022/09/06 10:31:36;;;;;;;2.42;0.98;;;25.30;1.00;;;;;;5075383;28;20190;-81
2022/09/06 10:34:20;;;;;;;1.00;0.90;;;25.50;1.00;;;;;;5075884;28;20199;-81
2022/09/06 10:37:15;;;;;;;2.15;1.30;;;25.50;1.00;;;;;;5077473;28;20167;-81
2022/09/06 10:39:53;;;;;;;4.47;1.00;;;25.60;99.90;;;;;;5077037;28;20161;-81
2022/09/06 10:42:34;;;;;;;1.67;1.10;;;25.80;99.90;;;;;;5075217;28;20167;-82
2022/09/06 10:45:12;;;;;;;2.40;1.08;;;25.70;1.00;;;;;;5077059;28;20185;-81
2022/09/06 10:48:03;;;;;;;1.02;0.77;;;26.00;99.90;;;;;;5076379;28;20277;-82
2022/09/06 10:50:49;;;;;;;3.10;1.10;;;26.10;99.90;;;;;;5076333;28;20241;-81
2022/09/06 10:53:20;;;;;;;3.58;0.95;;;26.10;99.90;;;;;;5076410;28;20182;-81
2022/09/06 10:55:56;;;;;;;1.45;1.10;;;26.20;99.90;;;;;;5077636;28;20171;-81
2022/09/06 10:58:26;;;;;;;2.28;1.20;;;26.00;99.90;;;;;;5074467;28;20191;-81
2022/09/06 11:00:53;;;;;;;1.70;1.10;;;26.10;99.90;;;;;;5074726;28;20213;-81
2022/09/06 11:03:26;;;;;;;2.65;1.17;;;26.30;99.90;;;;;;5074489;28;20175;-81
2022/09/06 11:05:57;;;;;;;2.03;1.20;;;26.20;99.90;;;;;;5074409;28;20470;-80
2022/09/06 11:08:33;;;;;;;1.80;1.05;;;26.30;99.90;;;;;;5074168;28;20186;-79
2022/09/06 11:11:04;;;;;;;1.88;1.17;;;26.40;99.90;;;;;;5073970;28;20713;-78
2022/09/06 11:13:31;;;;;;;4.07;1.23;;;26.50;99.90;;;;;;5074634;28;20211;-79
2022/09/06 11:16:03;;;;;;;1.40;1.20;;;26.60;99.90;;;;;;5074961;28;20174;-80
2022/09/06 11:18:43;;;;;;;2.22;1.50;;;26.70;99.90;;;;;;5074610;28;20222;-78
2022/09/06 11:21:11;;;;;;;2.30;1.23;;;26.70;99.90;;;;;;5074203;28;20159;-79
2022/09/06 11:23:52;;;;;;;4.38;1.20;;;26.70;99.90;;;;;;5074714;28;20178;-79
2022/09/06 11:26:29;;;;;;;5.35;1.20;;;26.80;99.90;;;;;;5072903;28;20167;-79
2022/09/06 11:28:58;;;;;;;1.33;1.10;;;26.80;99.90;;;;;;5074063;28;20210;-79
2022/09/06 11:31:32;;;;;;;3.60;1.38;;;26.90;99.90;;;;;;5073185;28;20199;-79
2022/09/06 11:34:10;;;;;;;3.80;1.20;;;26.90;99.90;;;;;;5074656;28;20152;-78
2022/09/06 11:36:46;;;;;;;2.28;1.20;;;26.90;99.90;;;;;;5077326;28;20167;-79
2022/09/06 11:39:13;;;;;;;3.40;1.33;;;27.00;99.90;;;;;;5076443;28;20228;-79
2022/09/06 11:41:41;;;;;;;2.85;1.35;;;27.10;99.90;;;;;;5074128;28;20254;-79
2022/09/06 11:44:09;;;;;;;2.35;1.23;;;27.30;99.90;;;;;;5075388;28;20652;-77
2022/09/06 11:46:34;;;;;;;2.45;1.15;;;27.30;99.90;;;;;;5074418;28;20175;-79
2022/09/06 11:49:05;;;;;;;6.38;1.45;;;27.20;99.90;;;;;;5077674;28;20195;-80
2022/09/06 11:51:37;;;;;;;1.50;1.17;;;27.20;99.90;;;;;;5072464;28;20223;-79
2022/09/06 11:54:18;;;;;;;2.35;1.50;;;27.20;99.90;;;;;;5073786;28;20225;-79
2022/09/06 11:57:01;;;;;;;2.35;1.38;;;27.30;99.90;;;;;;5074077;28;20148;-79
2022/09/06 11:59:55;;;;;;;1.45;1.10;;;27.40;99.90;;;;;;5074001;28;20209;-79
2022/09/06 12:02:35;;;;;;;2.35;1.15;;;27.50;99.90;;;;;;5074245;28;20183;-79
2022/09/06 12:05:02;;;;;;;2.15;1.00;;;27.50;99.90;;;;;;5076029;28;20159;-79
2022/09/06 12:07:29;;;;;;;4.63;1.55;;;27.70;99.90;;;;;;5077662;28;20190;-80
2022/09/06 12:09:55;;;;;;;2.53;1.33;;;27.80;99.90;;;;;;5076219;28;20181;-80
2022/09/06 12:12:51;;;;;;;2.38;1.38;;;28.00;99.90;;;;;;5076669;28;20266;-80
2022/09/06 12:15:43;;;;;;;2.55;1.48;;;27.80;99.90;;;;;;5075217;28;20628;-79
2022/09/06 12:18:29;;;;;;;2.63;1.20;;;27.90;99.90;;;;;;5078088;28;20191;-81
2022/09/06 12:20:55;;;;;;;2.85;1.20;;;27.90;99.90;;;;;;5076271;28;20182;-81
2022/09/06 12:23:36;;;;;;;5.22;1.63;;;27.90;99.90;;;;;;5075411;28;20236;-81
2022/09/06 12:26:07;;;;;;;2.75;1.67;;;27.90;99.90;;;;;;5072724;28;20548;-80
2022/09/06 12:28:33;;;;;;;4.53;1.77;;;27.90;99.90;;;;;;5060553;28;20210;-80
2022/09/06 12:31:00;;;;;;;2.42;1.52;;;28.00;99.90;;;;;;5074265;28;20680;-80
2022/09/06 12:33:37;;;;;;;5.88;2.03;;;28.00;99.90;;;;;;5076432;28;20233;-80
2022/09/06 12:36:15;;;;;;;3.22;1.55;;;28.10;99.90;;;;;;5078093;28;20143;-81
2022/09/06 12:39:07;;;;;;;2.75;1.30;;;28.10;99.90;;;;;;5076711;28;20560;-80
2022/09/06 12:41:46;;;;;;;3.60;1.33;;;28.20;99.90;;;;;;5055672;28;20179;-81
2022/09/06 12:44:13;;;;;;;2.63;1.50;;;28.30;99.90;;;;;;5074287;28;20246;-80
2022/09/06 12:46:46;;;;;;;2.22;1.45;;;28.40;99.90;;;;;;5075047;28;20644;-81
2022/09/06 12:49:14;;;;;;;2.15;1.48;;;28.40;99.90;;;;;;5075897;28;20542;-81
2022/09/06 12:51:40;;;;;;;3.85;1.45;;;28.30;99.90;;;;;;5075008;28;20211;-80
2022/09/06 12:54:25;;;;;;;1.80;1.25;;;28.50;99.90;;;;;;5071693;28;20190;-82
2022/09/06 12:56:51;;;;;;;2.50;1.30;;;28.40;99.90;;;;;;5069331;28;20172;-80
2022/09/06 12:59:20;;;;;;;4.53;1.38;;;28.50;99.90;;;;;;5074237;28;20277;-79
2022/09/06 13:01:56;;;;;;;3.45;1.20;;;28.60;99.90;;;;;;5073538;28;20175;-79
2022/09/06 13:05:10;;;;;;;1.25;1.10;;;28.60;99.90;;;;;;5076311;28;20159;-80
2022/09/06 13:07:42;;;;;;;5.03;1.60;;;28.70;99.90;;;;;;5071458;28;20203;-80